sensor_id;sensor_type;location;lat;lon;timestamp;P1;durP1;ratioP1;P2;durP2;ratioP2
52934;SDS011;38802;50.198;19.796;2023-07-13T00:00:00;5.10;;;4.60;;
52934;SDS011;38802;50.198;19.796;2023-07-13T00:02:32;9.40;;;5.10;;
52934;SDS011;38802;50.198;19.796;2023-07-13T00:05:00;5.90;;;5.30;;
52934;SDS011;38802;50.198;19.796;2023-07-13T00:07:29;7.40;;;5.30;;
52934;SDS011;38802;50.198;19.796;2023-07-13T00:09:59;7.00;;;5.50;;
52934;SDS011;38802;50.198;19.796;2023-07-13T00:12:28;8.40;;;5.10;;
52934;SDS011;38802;50.198;19.796;2023-07-13T00:14:58;6.70;;;5.20;;
52934;SDS011;38802;50.198;19.796;2023-07-13T00:17:28;6.00;;;5.50;;
52934;SDS011;38802;50.198;19.796;2023-07-13T00:19:57;5.60;;;5.00;;
52934;SDS011;38802;50.198;19.796;2023-07-13T00:22:26;6.00;;;4.80;;
52934;SDS011;38802;50.198;19.796;2023-07-13T00:24:54;7.10;;;5.20;;
52934;SDS011;38802;50.198;19.796;2023-07-13T00:27:24;6.80;;;5.50;;
52934;SDS011;38802;50.198;19.796;2023-07-13T00:29:58;7.50;;;5.40;;
52934;SDS011;38802;50.198;19.796;2023-07-13T00:32:26;6.80;;;4.90;;
52934;SDS011;38802;50.198;19.796;2023-07-13T00:34:54;5.80;;;5.10;;
52934;SDS011;38802;50.198;19.796;2023-07-13T00:37:24;7.90;;;5.80;;
52934;SDS011;38802;50.198;19.796;2023-07-13T00:39:52;8.80;;;5.60;;
52934;SDS011;38802;50.198;19.796;2023-07-13T00:42:20;6.40;;;5.70;;
52934;SDS011;38802;50.198;19.796;2023-07-13T00:47:52;6.40;;;5.80;;
52934;SDS011;38802;50.198;19.796;2023-07-13T00:50:21;5.50;;;5.00;;
52934;SDS011;38802;50.198;19.796;2023-07-13T00:52:53;6.60;;;5.40;;
52934;SDS011;38802;50.198;19.796;2023-07-13T00:55:25;12.00;;;5.10;;
52934;SDS011;38802;50.198;19.796;2023-07-13T00:57:53;7.80;;;5.20;;
52934;SDS011;38802;50.198;19.796;2023-07-13T01:00:21;7.30;;;5.20;;
52934;SDS011;38802;50.198;19.796;2023-07-13T01:02:50;13.20;;;6.40;;
52934;SDS011;38802;50.198;19.796;2023-07-13T01:05:20;10.70;;;5.90;;
52934;SDS011;38802;50.198;19.796;2023-07-13T01:07:50;9.70;;;5.80;;
52934;SDS011;38802;50.198;19.796;2023-07-13T01:10:23;6.90;;;5.70;;
52934;SDS011;38802;50.198;19.796;2023-07-13T01:12:52;7.60;;;5.60;;
52934;SDS011;38802;50.198;19.796;2023-07-13T01:15:36;5.80;;;4.70;;
52934;SDS011;38802;50.198;19.796;2023-07-13T01:18:07;6.60;;;5.70;;
52934;SDS011;38802;50.198;19.796;2023-07-13T01:20:38;5.50;;;4.70;;
52934;SDS011;38802;50.198;19.796;2023-07-13T01:23:08;6.20;;;4.40;;
52934;SDS011;38802;50.198;19.796;2023-07-13T01:25:38;4.20;;;3.80;;
52934;SDS011;38802;50.198;19.796;2023-07-13T01:28:07;4.50;;;4.10;;
52934;SDS011;38802;50.198;19.796;2023-07-13T01:30:38;5.90;;;4.20;;
52934;SDS011;38802;50.198;19.796;2023-07-13T01:33:08;5.20;;;4.20;;
52934;SDS011;38802;50.198;19.796;2023-07-13T01:35:37;4.60;;;4.00;;
52934;SDS011;38802;50.198;19.796;2023-07-13T01:38:05;5.30;;;3.90;;
52934;SDS011;38802;50.198;19.796;2023-07-13T01:40:34;4.40;;;4.00;;
52934;SDS011;38802;50.198;19.796;2023-07-13T01:43:02;4.30;;;3.70;;
52934;SDS011;38802;50.198;19.796;2023-07-13T01:45:30;4.90;;;3.40;;
52934;SDS011;38802;50.198;19.796;2023-07-13T01:47:59;5.00;;;3.60;;
52934;SDS011;38802;50.198;19.796;2023-07-13T01:50:27;4.80;;;3.70;;
52934;SDS011;38802;50.198;19.796;2023-07-13T01:52:55;3.70;;;3.30;;
52934;SDS011;38802;50.198;19.796;2023-07-13T01:55:23;4.30;;;3.60;;
52934;SDS011;38802;50.198;19.796;2023-07-13T01:57:51;3.60;;;3.30;;
52934;SDS011;38802;50.198;19.796;2023-07-13T02:00:19;3.60;;;3.30;;
52934;SDS011;38802;50.198;19.796;2023-07-13T02:02:48;4.20;;;3.80;;
52934;SDS011;38802;50.198;19.796;2023-07-13T02:05:17;4.60;;;3.40;;
52934;SDS011;38802;50.198;19.796;2023-07-13T02:07:45;3.70;;;3.40;;
52934;SDS011;38802;50.198;19.796;2023-07-13T02:10:13;3.20;;;2.70;;
52934;SDS011;38802;50.198;19.796;2023-07-13T02:12:41;2.90;;;2.70;;
52934;SDS011;38802;50.198;19.796;2023-07-13T02:15:10;2.90;;;2.70;;
52934;SDS011;38802;50.198;19.796;2023-07-13T02:17:38;3.20;;;2.30;;
52934;SDS011;38802;50.198;19.796;2023-07-13T02:20:06;3.50;;;2.20;;
52934;SDS011;38802;50.198;19.796;2023-07-13T02:22:35;2.80;;;2.50;;
52934;SDS011;38802;50.198;19.796;2023-07-13T02:25:03;2.40;;;2.20;;
52934;SDS011;38802;50.198;19.796;2023-07-13T02:27:32;2.90;;;2.60;;
52934;SDS011;38802;50.198;19.796;2023-07-13T02:30:00;4.70;;;4.20;;
52934;SDS011;38802;50.198;19.796;2023-07-13T02:32:28;4.90;;;3.60;;
52934;SDS011;38802;50.198;19.796;2023-07-13T02:34:56;6.00;;;4.30;;
52934;SDS011;38802;50.198;19.796;2023-07-13T02:37:26;6.80;;;4.70;;
52934;SDS011;38802;50.198;19.796;2023-07-13T02:39:54;6.00;;;4.80;;
52934;SDS011;38802;50.198;19.796;2023-07-13T02:42:23;5.50;;;4.60;;
52934;SDS011;38802;50.198;19.796;2023-07-13T02:44:51;5.90;;;4.50;;
52934;SDS011;38802;50.198;19.796;2023-07-13T02:47:19;6.10;;;5.60;;
52934;SDS011;38802;50.198;19.796;2023-07-13T02:49:47;10.80;;;6.20;;
52934;SDS011;38802;50.198;19.796;2023-07-13T02:52:15;7.50;;;6.00;;
52934;SDS011;38802;50.198;19.796;2023-07-13T02:54:43;7.20;;;5.10;;
52934;SDS011;38802;50.198;19.796;2023-07-13T02:57:12;6.50;;;5.80;;
52934;SDS011;38802;50.198;19.796;2023-07-13T02:59:40;6.00;;;5.40;;
52934;SDS011;38802;50.198;19.796;2023-07-13T03:02:07;5.40;;;5.00;;
52934;SDS011;38802;50.198;19.796;2023-07-13T03:04:36;7.30;;;5.40;;
52934;SDS011;38802;50.198;19.796;2023-07-13T03:07:05;9.80;;;4.90;;
52934;SDS011;38802;50.198;19.796;2023-07-13T03:09:35;5.10;;;4.60;;
52934;SDS011;38802;50.198;19.796;2023-07-13T03:12:05;5.70;;;5.10;;
52934;SDS011;38802;50.198;19.796;2023-07-13T03:14:33;7.60;;;5.40;;
52934;SDS011;38802;50.198;19.796;2023-07-13T03:17:02;4.80;;;4.40;;
52934;SDS011;38802;50.198;19.796;2023-07-13T03:19:31;6.00;;;5.40;;
52934;SDS011;38802;50.198;19.796;2023-07-13T03:21:59;7.10;;;6.50;;
52934;SDS011;38802;50.198;19.796;2023-07-13T03:24:28;6.00;;;5.10;;
52934;SDS011;38802;50.198;19.796;2023-07-13T03:26:57;6.60;;;5.90;;
52934;SDS011;38802;50.198;19.796;2023-07-13T03:29:26;6.50;;;5.90;;
52934;SDS011;38802;50.198;19.796;2023-07-13T03:31:54;7.80;;;6.10;;
52934;SDS011;38802;50.198;19.796;2023-07-13T03:34:22;6.30;;;5.70;;
52934;SDS011;38802;50.198;19.796;2023-07-13T03:36:53;6.50;;;5.60;;
52934;SDS011;38802;50.198;19.796;2023-07-13T03:39:22;7.00;;;6.20;;
52934;SDS011;38802;50.198;19.796;2023-07-13T03:41:53;6.60;;;5.60;;
52934;SDS011;38802;50.198;19.796;2023-07-13T03:44:22;7.00;;;6.10;;
52934;SDS011;38802;50.198;19.796;2023-07-13T03:46:53;6.40;;;5.90;;
52934;SDS011;38802;50.198;19.796;2023-07-13T03:49:22;6.40;;;5.80;;
52934;SDS011;38802;50.198;19.796;2023-07-13T03:51:50;6.90;;;6.00;;
52934;SDS011;38802;50.198;19.796;2023-07-13T03:54:21;6.50;;;5.90;;
52934;SDS011;38802;50.198;19.796;2023-07-13T03:56:49;6.60;;;5.50;;
52934;SDS011;38802;50.198;19.796;2023-07-13T03:59:17;6.10;;;5.50;;
52934;SDS011;38802;50.198;19.796;2023-07-13T04:01:46;5.60;;;5.10;;
52934;SDS011;38802;50.198;19.796;2023-07-13T04:04:14;6.70;;;5.30;;
52934;SDS011;38802;50.198;19.796;2023-07-13T04:06:43;6.80;;;5.90;;
52934;SDS011;38802;50.198;19.796;2023-07-13T04:09:12;12.00;;;5.50;;
52934;SDS011;38802;50.198;19.796;2023-07-13T04:11:40;5.80;;;4.70;;
52934;SDS011;38802;50.198;19.796;2023-07-13T04:14:08;4.90;;;4.50;;
52934;SDS011;38802;50.198;19.796;2023-07-13T04:16:36;5.30;;;4.80;;
52934;SDS011;38802;50.198;19.796;2023-07-13T04:19:04;10.40;;;5.60;;
52934;SDS011;38802;50.198;19.796;2023-07-13T04:21:32;6.30;;;5.50;;
52934;SDS011;38802;50.198;19.796;2023-07-13T04:24:00;6.80;;;5.80;;
52934;SDS011;38802;50.198;19.796;2023-07-13T04:26:29;6.80;;;5.70;;
52934;SDS011;38802;50.198;19.796;2023-07-13T04:28:57;5.30;;;4.80;;
52934;SDS011;38802;50.198;19.796;2023-07-13T04:31:25;8.10;;;4.70;;
52934;SDS011;38802;50.198;19.796;2023-07-13T04:33:53;5.00;;;4.50;;
52934;SDS011;38802;50.198;19.796;2023-07-13T04:36:22;4.60;;;4.10;;
52934;SDS011;38802;50.198;19.796;2023-07-13T04:38:50;5.80;;;4.30;;
52934;SDS011;38802;50.198;19.796;2023-07-13T04:41:18;6.70;;;4.20;;
52934;SDS011;38802;50.198;19.796;2023-07-13T04:43:46;6.90;;;5.80;;
52934;SDS011;38802;50.198;19.796;2023-07-13T04:46:16;5.40;;;4.90;;
52934;SDS011;38802;50.198;19.796;2023-07-13T04:48:48;14.30;;;5.30;;
52934;SDS011;38802;50.198;19.796;2023-07-13T04:51:16;9.00;;;4.60;;
52934;SDS011;38802;50.198;19.796;2023-07-13T04:53:44;5.90;;;4.60;;
52934;SDS011;38802;50.198;19.796;2023-07-13T04:56:12;4.90;;;4.50;;
52934;SDS011;38802;50.198;19.796;2023-07-13T04:58:40;6.50;;;4.20;;
52934;SDS011;38802;50.198;19.796;2023-07-13T05:01:09;4.80;;;4.30;;
52934;SDS011;38802;50.198;19.796;2023-07-13T05:03:38;4.80;;;4.20;;
52934;SDS011;38802;50.198;19.796;2023-07-13T05:06:07;4.80;;;4.10;;
52934;SDS011;38802;50.198;19.796;2023-07-13T05:08:39;5.10;;;4.30;;
52934;SDS011;38802;50.198;19.796;2023-07-13T05:11:07;4.90;;;4.30;;
52934;SDS011;38802;50.198;19.796;2023-07-13T05:13:36;6.20;;;3.80;;
52934;SDS011;38802;50.198;19.796;2023-07-13T05:16:04;6.10;;;3.70;;
52934;SDS011;38802;50.198;19.796;2023-07-13T05:18:35;5.30;;;3.60;;
52934;SDS011;38802;50.198;19.796;2023-07-13T05:21:09;3.70;;;3.40;;
52934;SDS011;38802;50.198;19.796;2023-07-13T05:23:39;6.20;;;3.60;;
52934;SDS011;38802;50.198;19.796;2023-07-13T05:26:10;8.10;;;3.40;;
52934;SDS011;38802;50.198;19.796;2023-07-13T05:28:39;6.00;;;3.40;;
52934;SDS011;38802;50.198;19.796;2023-07-13T05:31:08;4.90;;;3.60;;
52934;SDS011;38802;50.198;19.796;2023-07-13T05:33:37;4.80;;;3.90;;
52934;SDS011;38802;50.198;19.796;2023-07-13T05:36:06;3.70;;;3.30;;
52934;SDS011;38802;50.198;19.796;2023-07-13T05:38:37;3.50;;;3.20;;
52934;SDS011;38802;50.198;19.796;2023-07-13T05:41:05;3.80;;;3.40;;
52934;SDS011;38802;50.198;19.796;2023-07-13T05:43:34;6.00;;;3.70;;
52934;SDS011;38802;50.198;19.796;2023-07-13T05:46:02;4.30;;;3.90;;
52934;SDS011;38802;50.198;19.796;2023-07-13T05:48:30;7.20;;;3.50;;
52934;SDS011;38802;50.198;19.796;2023-07-13T05:50:59;6.20;;;3.90;;
52934;SDS011;38802;50.198;19.796;2023-07-13T05:53:33;5.30;;;4.00;;
52934;SDS011;38802;50.198;19.796;2023-07-13T05:56:02;5.60;;;4.30;;
52934;SDS011;38802;50.198;19.796;2023-07-13T05:58:30;8.60;;;3.30;;
52934;SDS011;38802;50.198;19.796;2023-07-13T06:01:02;7.00;;;4.50;;
52934;SDS011;38802;50.198;19.796;2023-07-13T06:03:35;8.50;;;4.60;;
52934;SDS011;38802;50.198;19.796;2023-07-13T06:06:06;9.00;;;4.70;;
52934;SDS011;38802;50.198;19.796;2023-07-13T06:08:36;5.10;;;4.00;;
52934;SDS011;38802;50.198;19.796;2023-07-13T06:11:05;5.30;;;4.40;;
52934;SDS011;38802;50.198;19.796;2023-07-13T06:13:40;9.40;;;4.60;;
52934;SDS011;38802;50.198;19.796;2023-07-13T06:16:08;4.20;;;3.50;;
52934;SDS011;38802;50.198;19.796;2023-07-13T06:18:37;5.30;;;4.20;;
52934;SDS011;38802;50.198;19.796;2023-07-13T06:21:06;3.50;;;3.20;;
52934;SDS011;38802;50.198;19.796;2023-07-13T06:23:39;4.40;;;3.90;;
52934;SDS011;38802;50.198;19.796;2023-07-13T06:26:07;7.80;;;3.80;;
52934;SDS011;38802;50.198;19.796;2023-07-13T06:28:36;4.20;;;3.90;;
52934;SDS011;38802;50.198;19.796;2023-07-13T06:31:09;6.40;;;4.00;;
52934;SDS011;38802;50.198;19.796;2023-07-13T06:33:39;5.80;;;4.40;;
52934;SDS011;38802;50.198;19.796;2023-07-13T06:36:07;4.70;;;3.90;;
52934;SDS011;38802;50.198;19.796;2023-07-13T06:38:36;4.40;;;3.90;;
52934;SDS011;38802;50.198;19.796;2023-07-13T06:41:06;6.70;;;3.80;;
52934;SDS011;38802;50.198;19.796;2023-07-13T06:43:37;5.40;;;3.90;;
52934;SDS011;38802;50.198;19.796;2023-07-13T06:46:06;5.60;;;3.50;;
52934;SDS011;38802;50.198;19.796;2023-07-13T06:48:34;4.80;;;3.80;;
52934;SDS011;38802;50.198;19.796;2023-07-13T06:51:02;6.50;;;3.90;;
52934;SDS011;38802;50.198;19.796;2023-07-13T06:53:30;5.60;;;4.10;;
52934;SDS011;38802;50.198;19.796;2023-07-13T06:55:58;7.10;;;4.00;;
52934;SDS011;38802;50.198;19.796;2023-07-13T06:58:27;6.50;;;3.30;;
52934;SDS011;38802;50.198;19.796;2023-07-13T07:00:55;3.20;;;3.00;;
52934;SDS011;38802;50.198;19.796;2023-07-13T07:03:23;3.60;;;3.20;;
52934;SDS011;38802;50.198;19.796;2023-07-13T07:05:51;4.60;;;3.70;;
52934;SDS011;38802;50.198;19.796;2023-07-13T07:08:19;3.90;;;3.00;;
52934;SDS011;38802;50.198;19.796;2023-07-13T07:10:47;3.30;;;2.90;;
52934;SDS011;38802;50.198;19.796;2023-07-13T07:13:19;4.60;;;3.50;;
52934;SDS011;38802;50.198;19.796;2023-07-13T07:15:47;5.60;;;3.40;;
52934;SDS011;38802;50.198;19.796;2023-07-13T07:18:19;4.50;;;3.00;;
52934;SDS011;38802;50.198;19.796;2023-07-13T07:20:48;6.40;;;2.80;;
52934;SDS011;38802;50.198;19.796;2023-07-13T07:23:16;3.80;;;2.90;;
52934;SDS011;38802;50.198;19.796;2023-07-13T07:25:44;7.50;;;3.40;;
52934;SDS011;38802;50.198;19.796;2023-07-13T07:28:14;3.50;;;3.10;;
52934;SDS011;38802;50.198;19.796;2023-07-13T07:30:48;4.10;;;2.80;;
52934;SDS011;38802;50.198;19.796;2023-07-13T07:33:20;5.00;;;3.00;;
52934;SDS011;38802;50.198;19.796;2023-07-13T07:35:48;4.50;;;3.00;;
52934;SDS011;38802;50.198;19.796;2023-07-13T07:38:19;3.80;;;3.10;;
52934;SDS011;38802;50.198;19.796;2023-07-13T07:40:52;3.10;;;2.40;;
52934;SDS011;38802;50.198;19.796;2023-07-13T07:43:23;4.70;;;2.60;;
52934;SDS011;38802;50.198;19.796;2023-07-13T07:45:51;3.70;;;3.40;;
52934;SDS011;38802;50.198;19.796;2023-07-13T07:48:19;5.20;;;2.70;;
52934;SDS011;38802;50.198;19.796;2023-07-13T07:50:48;3.90;;;3.30;;
52934;SDS011;38802;50.198;19.796;2023-07-13T07:53:16;3.30;;;3.00;;
52934;SDS011;38802;50.198;19.796;2023-07-13T07:55:44;6.20;;;3.10;;
52934;SDS011;38802;50.198;19.796;2023-07-13T07:58:16;3.60;;;3.20;;
52934;SDS011;38802;50.198;19.796;2023-07-13T08:01:06;3.70;;;2.80;;
52934;SDS011;38802;50.198;19.796;2023-07-13T08:03:37;3.30;;;2.70;;
52934;SDS011;38802;50.198;19.796;2023-07-13T08:06:08;4.20;;;2.50;;
52934;SDS011;38802;50.198;19.796;2023-07-13T08:08:39;3.20;;;2.90;;
52934;SDS011;38802;50.198;19.796;2023-07-13T08:11:08;4.80;;;2.20;;
52934;SDS011;38802;50.198;19.796;2023-07-13T08:13:40;2.60;;;2.40;;
52934;SDS011;38802;50.198;19.796;2023-07-13T08:16:08;5.40;;;2.30;;
52934;SDS011;38802;50.198;19.796;2023-07-13T08:18:37;2.60;;;2.30;;
52934;SDS011;38802;50.198;19.796;2023-07-13T08:21:05;6.30;;;2.50;;
52934;SDS011;38802;50.198;19.796;2023-07-13T08:23:35;2.50;;;2.30;;
52934;SDS011;38802;50.198;19.796;2023-07-13T08:26:03;2.40;;;2.20;;
52934;SDS011;38802;50.198;19.796;2023-07-13T08:28:32;2.90;;;2.40;;
52934;SDS011;38802;50.198;19.796;2023-07-13T08:31:02;3.00;;;2.50;;
52934;SDS011;38802;50.198;19.796;2023-07-13T08:33:33;3.20;;;2.40;;
52934;SDS011;38802;50.198;19.796;2023-07-13T08:36:03;2.30;;;2.10;;
52934;SDS011;38802;50.198;19.796;2023-07-13T08:38:32;3.00;;;2.20;;
52934;SDS011;38802;50.198;19.796;2023-07-13T08:41:03;3.60;;;2.20;;
52934;SDS011;38802;50.198;19.796;2023-07-13T08:43:39;5.70;;;2.10;;
52934;SDS011;38802;50.198;19.796;2023-07-13T08:46:13;3.00;;;2.40;;
52934;SDS011;38802;50.198;19.796;2023-07-13T08:49:06;7.90;;;2.80;;
52934;SDS011;38802;50.198;19.796;2023-07-13T08:51:55;6.60;;;2.70;;
52934;SDS011;38802;50.198;19.796;2023-07-13T08:54:39;3.60;;;2.30;;
52934;SDS011;38802;50.198;19.796;2023-07-13T08:57:15;2.60;;;2.40;;
52934;SDS011;38802;50.198;19.796;2023-07-13T08:59:47;3.00;;;2.60;;
52934;SDS011;38802;50.198;19.796;2023-07-13T09:02:26;4.50;;;2.50;;
52934;SDS011;38802;50.198;19.796;2023-07-13T09:05:03;2.50;;;2.30;;
52934;SDS011;38802;50.198;19.796;2023-07-13T09:07:55;2.70;;;2.50;;
52934;SDS011;38802;50.198;19.796;2023-07-13T09:10:32;4.30;;;2.50;;
52934;SDS011;38802;50.198;19.796;2023-07-13T09:16:07;2.60;;;2.40;;
52934;SDS011;38802;50.198;19.796;2023-07-13T09:18:38;5.00;;;2.70;;
52934;SDS011;38802;50.198;19.796;2023-07-13T09:21:20;3.00;;;2.30;;
52934;SDS011;38802;50.198;19.796;2023-07-13T09:23:53;2.50;;;2.30;;
52934;SDS011;38802;50.198;19.796;2023-07-13T09:26:26;2.40;;;2.20;;
52934;SDS011;38802;50.198;19.796;2023-07-13T09:28:58;2.80;;;2.20;;
52934;SDS011;38802;50.198;19.796;2023-07-13T09:31:38;2.70;;;2.50;;
52934;SDS011;38802;50.198;19.796;2023-07-13T09:34:13;4.10;;;2.30;;
52934;SDS011;38802;50.198;19.796;2023-07-13T09:36:41;2.90;;;2.20;;
52934;SDS011;38802;50.198;19.796;2023-07-13T09:39:14;2.70;;;2.40;;
52934;SDS011;38802;50.198;19.796;2023-07-13T09:44:29;2.70;;;2.30;;
52934;SDS011;38802;50.198;19.796;2023-07-13T09:47:15;2.90;;;2.60;;
52934;SDS011;38802;50.198;19.796;2023-07-13T09:49:45;2.50;;;2.30;;
52934;SDS011;38802;50.198;19.796;2023-07-13T09:52:16;3.70;;;2.70;;
52934;SDS011;38802;50.198;19.796;2023-07-13T09:54:48;3.00;;;2.60;;
52934;SDS011;38802;50.198;19.796;2023-07-13T09:57:18;3.90;;;2.50;;
52934;SDS011;38802;50.198;19.796;2023-07-13T10:00:01;3.30;;;2.90;;
52934;SDS011;38802;50.198;19.796;2023-07-13T10:02:33;6.10;;;3.00;;
52934;SDS011;38802;50.198;19.796;2023-07-13T10:05:04;2.90;;;2.60;;
52934;SDS011;38802;50.198;19.796;2023-07-13T10:07:37;4.60;;;3.00;;
52934;SDS011;38802;50.198;19.796;2023-07-13T10:10:14;3.40;;;3.10;;
52934;SDS011;38802;50.198;19.796;2023-07-13T10:12:44;4.30;;;3.50;;
52934;SDS011;38802;50.198;19.796;2023-07-13T10:15:22;3.40;;;2.20;;
52934;SDS011;38802;50.198;19.796;2023-07-13T10:17:54;3.60;;;3.20;;
52934;SDS011;38802;50.198;19.796;2023-07-13T10:20:24;3.00;;;2.70;;
52934;SDS011;38802;50.198;19.796;2023-07-13T10:23:04;3.70;;;3.00;;
52934;SDS011;38802;50.198;19.796;2023-07-13T10:25:39;4.80;;;3.40;;
52934;SDS011;38802;50.198;19.796;2023-07-13T10:30:53;4.60;;;3.40;;
52934;SDS011;38802;50.198;19.796;2023-07-13T10:33:23;4.70;;;3.10;;
52934;SDS011;38802;50.198;19.796;2023-07-13T10:35:54;6.40;;;3.60;;
52934;SDS011;38802;50.198;19.796;2023-07-13T10:38:36;4.10;;;3.70;;
52934;SDS011;38802;50.198;19.796;2023-07-13T10:41:06;4.00;;;3.60;;
52934;SDS011;38802;50.198;19.796;2023-07-13T10:43:39;5.70;;;4.10;;
52934;SDS011;38802;50.198;19.796;2023-07-13T10:46:11;3.90;;;3.50;;
52934;SDS011;38802;50.198;19.796;2023-07-13T10:48:43;5.10;;;4.00;;
52934;SDS011;38802;50.198;19.796;2023-07-13T10:51:18;6.10;;;3.90;;
52934;SDS011;38802;50.198;19.796;2023-07-13T10:59:47;6.60;;;4.20;;
52934;SDS011;38802;50.198;19.796;2023-07-13T11:02:36;6.30;;;4.10;;
52934;SDS011;38802;50.198;19.796;2023-07-13T11:05:25;6.20;;;4.10;;
52934;SDS011;38802;50.198;19.796;2023-07-13T11:08:04;6.30;;;4.10;;
52934;SDS011;38802;50.198;19.796;2023-07-13T11:10:54;5.30;;;4.20;;
52934;SDS011;38802;50.198;19.796;2023-07-13T11:13:55;4.80;;;4.30;;
52934;SDS011;38802;50.198;19.796;2023-07-13T11:16:36;12.40;;;4.80;;
52934;SDS011;38802;50.198;19.796;2023-07-13T11:27:21;3.80;;;2.00;;
52934;SDS011;38802;50.198;19.796;2023-07-13T11:29:50;4.90;;;1.60;;
52934;SDS011;38802;50.198;19.796;2023-07-13T11:32:25;4.70;;;1.80;;
52934;SDS011;38802;50.198;19.796;2023-07-13T11:34:58;3.60;;;1.50;;
52934;SDS011;38802;50.198;19.796;2023-07-13T11:37:27;4.20;;;1.70;;
52934;SDS011;38802;50.198;19.796;2023-07-13T11:39:57;1.60;;;1.50;;
52934;SDS011;38802;50.198;19.796;2023-07-13T11:42:28;3.50;;;1.40;;
52934;SDS011;38802;50.198;19.796;2023-07-13T11:44:58;2.00;;;1.30;;
52934;SDS011;38802;50.198;19.796;2023-07-13T11:47:39;1.50;;;0.90;;
52934;SDS011;38802;50.198;19.796;2023-07-13T11:50:16;3.00;;;1.30;;
52934;SDS011;38802;50.198;19.796;2023-07-13T11:52:47;1.70;;;1.00;;
52934;SDS011;38802;50.198;19.796;2023-07-13T11:55:18;2.50;;;1.50;;
52934;SDS011;38802;50.198;19.796;2023-07-13T11:57:49;2.30;;;0.80;;
52934;SDS011;38802;50.198;19.796;2023-07-13T12:00:22;1.60;;;0.90;;
52934;SDS011;38802;50.198;19.796;2023-07-13T12:02:55;1.40;;;1.00;;
52934;SDS011;38802;50.198;19.796;2023-07-13T12:05:27;2.10;;;0.70;;
52934;SDS011;38802;50.198;19.796;2023-07-13T12:07:55;2.20;;;0.80;;
52934;SDS011;38802;50.198;19.796;2023-07-13T12:10:24;1.60;;;0.80;;
52934;SDS011;38802;50.198;19.796;2023-07-13T12:12:59;0.70;;;0.60;;
52934;SDS011;38802;50.198;19.796;2023-07-13T12:21:02;0.80;;;0.50;;
52934;SDS011;38802;50.198;19.796;2023-07-13T12:23:31;0.90;;;0.70;;
52934;SDS011;38802;50.198;19.796;2023-07-13T12:26:03;3.10;;;0.80;;
52934;SDS011;38802;50.198;19.796;2023-07-13T12:28:34;1.30;;;0.80;;
52934;SDS011;38802;50.198;19.796;2023-07-13T12:31:05;1.30;;;0.80;;
52934;SDS011;38802;50.198;19.796;2023-07-13T12:33:55;3.00;;;0.80;;
52934;SDS011;38802;50.198;19.796;2023-07-13T12:36:24;1.70;;;0.70;;
52934;SDS011;38802;50.198;19.796;2023-07-13T12:38:53;1.10;;;0.70;;
52934;SDS011;38802;50.198;19.796;2023-07-13T12:41:21;1.00;;;0.80;;
52934;SDS011;38802;50.198;19.796;2023-07-13T12:43:50;1.00;;;0.80;;
52934;SDS011;38802;50.198;19.796;2023-07-13T12:46:20;0.90;;;0.60;;
52934;SDS011;38802;50.198;19.796;2023-07-13T12:48:52;2.20;;;1.10;;
52934;SDS011;38802;50.198;19.796;2023-07-13T12:51:41;0.90;;;0.80;;
52934;SDS011;38802;50.198;19.796;2023-07-13T12:54:15;0.90;;;0.80;;
52934;SDS011;38802;50.198;19.796;2023-07-13T12:56:45;0.80;;;0.80;;
52934;SDS011;38802;50.198;19.796;2023-07-13T12:59:21;1.00;;;0.80;;
52934;SDS011;38802;50.198;19.796;2023-07-13T13:01:51;1.40;;;0.80;;
52934;SDS011;38802;50.198;19.796;2023-07-13T13:04:19;1.00;;;0.80;;
52934;SDS011;38802;50.198;19.796;2023-07-13T13:07:00;1.10;;;0.80;;
52934;SDS011;38802;50.198;19.796;2023-07-13T13:09:29;2.10;;;0.80;;
52934;SDS011;38802;50.198;19.796;2023-07-13T13:34:08;2.80;;;0.70;;
52934;SDS011;38802;50.198;19.796;2023-07-13T13:37:02;1.10;;;0.80;;
52934;SDS011;38802;50.198;19.796;2023-07-13T13:39:34;1.50;;;1.00;;
52934;SDS011;38802;50.198;19.796;2023-07-13T13:42:04;0.80;;;0.80;;
52934;SDS011;38802;50.198;19.796;2023-07-13T13:44:40;1.60;;;0.90;;
52934;SDS011;38802;50.198;19.796;2023-07-13T13:47:29;1.00;;;0.80;;
52934;SDS011;38802;50.198;19.796;2023-07-13T13:50:00;2.60;;;0.80;;
52934;SDS011;38802;50.198;19.796;2023-07-13T13:52:28;2.30;;;1.20;;
52934;SDS011;38802;50.198;19.796;2023-07-13T13:54:56;2.40;;;1.00;;
52934;SDS011;38802;50.198;19.796;2023-07-13T13:57:25;1.60;;;1.00;;
52934;SDS011;38802;50.198;19.796;2023-07-13T13:59:53;1.00;;;0.80;;
52934;SDS011;38802;50.198;19.796;2023-07-13T14:02:22;0.90;;;0.80;;
52934;SDS011;38802;50.198;19.796;2023-07-13T14:04:54;1.40;;;1.10;;
52934;SDS011;38802;50.198;19.796;2023-07-13T14:07:27;3.30;;;1.30;;
52934;SDS011;38802;50.198;19.796;2023-07-13T14:09:56;2.30;;;0.80;;
52934;SDS011;38802;50.198;19.796;2023-07-13T14:12:26;1.00;;;0.90;;
52934;SDS011;38802;50.198;19.796;2023-07-13T14:14:57;2.20;;;1.10;;
52934;SDS011;38802;50.198;19.796;2023-07-13T14:17:29;1.50;;;1.10;;
52934;SDS011;38802;50.198;19.796;2023-07-13T14:19:57;0.90;;;0.90;;
52934;SDS011;38802;50.198;19.796;2023-07-13T14:22:25;1.50;;;1.20;;
52934;SDS011;38802;50.198;19.796;2023-07-13T14:24:54;0.90;;;0.90;;
52934;SDS011;38802;50.198;19.796;2023-07-13T14:27:24;3.00;;;1.10;;
52934;SDS011;38802;50.198;19.796;2023-07-13T14:29:53;1.10;;;1.00;;
52934;SDS011;38802;50.198;19.796;2023-07-13T14:32:21;2.70;;;1.00;;
52934;SDS011;38802;50.198;19.796;2023-07-13T14:34:49;1.60;;;0.90;;
52934;SDS011;38802;50.198;19.796;2023-07-13T14:37:23;1.50;;;1.30;;
52934;SDS011;38802;50.198;19.796;2023-07-13T14:39:51;2.10;;;1.60;;
52934;SDS011;38802;50.198;19.796;2023-07-13T14:42:20;4.10;;;2.80;;
52934;SDS011;38802;50.198;19.796;2023-07-13T14:44:48;7.70;;;2.80;;
52934;SDS011;38802;50.198;19.796;2023-07-13T14:47:16;6.40;;;3.70;;
52934;SDS011;38802;50.198;19.796;2023-07-13T14:49:45;6.40;;;4.00;;
52934;SDS011;38802;50.198;19.796;2023-07-13T14:52:19;8.30;;;3.80;;
52934;SDS011;38802;50.198;19.796;2023-07-13T14:54:51;6.90;;;4.00;;
52934;SDS011;38802;50.198;19.796;2023-07-13T14:57:19;3.60;;;2.90;;
52934;SDS011;38802;50.198;19.796;2023-07-13T14:59:48;2.60;;;2.40;;
52934;SDS011;38802;50.198;19.796;2023-07-13T15:05:01;3.40;;;3.10;;
52934;SDS011;38802;50.198;19.796;2023-07-13T15:07:40;3.40;;;3.10;;
52934;SDS011;38802;50.198;19.796;2023-07-13T15:10:22;5.50;;;3.70;;
52934;SDS011;38802;50.198;19.796;2023-07-13T15:13:01;6.20;;;4.30;;
52934;SDS011;38802;50.198;19.796;2023-07-13T15:15:51;5.20;;;4.10;;
52934;SDS011;38802;50.198;19.796;2023-07-13T15:18:22;5.00;;;4.40;;
52934;SDS011;38802;50.198;19.796;2023-07-13T15:20:52;5.20;;;4.80;;
52934;SDS011;38802;50.198;19.796;2023-07-13T15:23:23;6.00;;;4.20;;
52934;SDS011;38802;50.198;19.796;2023-07-13T15:25:51;3.70;;;3.40;;
52934;SDS011;38802;50.198;19.796;2023-07-13T15:28:22;4.40;;;4.10;;
52934;SDS011;38802;50.198;19.796;2023-07-13T15:30:51;5.10;;;4.60;;
52934;SDS011;38802;50.198;19.796;2023-07-13T15:33:24;4.60;;;4.30;;
52934;SDS011;38802;50.198;19.796;2023-07-13T15:35:55;4.00;;;3.70;;
52934;SDS011;38802;50.198;19.796;2023-07-13T15:38:27;3.40;;;3.00;;
52934;SDS011;38802;50.198;19.796;2023-07-13T15:40:57;4.60;;;4.30;;
52934;SDS011;38802;50.198;19.796;2023-07-13T15:43:25;5.00;;;4.00;;
52934;SDS011;38802;50.198;19.796;2023-07-13T15:45:54;4.20;;;3.50;;
52934;SDS011;38802;50.198;19.796;2023-07-13T15:48:23;4.40;;;4.10;;
52934;SDS011;38802;50.198;19.796;2023-07-13T15:50:55;4.30;;;4.00;;